Algoma, Wisconsin
Current Conditions -  °F | °C
As of 9:15 PM on Thursday 27 Nov 2014 (Local Time) from KSUE Reporting Station
Clear Clear  
Wind Chill: -15°   Ceiling: Unl
Heat Index: -11°   Visibility: 10mi
Dew Point: -17°   Wind: 5mph
Humidity: 62%   Direction: 320°NW
Pressure: 30.34"   Gusts: NA
Location:  44.61°N, 87.43°W
Report Text: KSUE 280315Z AUTO 32004KT 10SM CLR M11/M17 A3034 RMK AO1
Loading
Personal Weather Stations






























Interactive Weather Map New forecast layout! Learn more

10-Day Weather Forecast

Advertisements
Track Severe Weather on mobile